createdAt,value
2019-03-20T00:01:43.982Z,0.30
2019-03-20T00:04:51.377Z,0.20
2019-03-20T00:07:58.584Z,3.20
2019-03-20T00:11:05.902Z,1.33
2019-03-20T00:14:22.540Z,5.97
2019-03-20T00:17:29.887Z,0.30
2019-03-20T00:20:46.642Z,0.93
2019-03-20T00:23:53.775Z,1.30
2019-03-20T00:27:00.988Z,0.17
2019-03-20T00:30:09.488Z,3.13
2019-03-20T00:33:15.515Z,0.50
2019-03-20T00:36:32.208Z,1.13
2019-03-20T00:39:49.273Z,0.90
2019-03-20T00:43:05.885Z,1.60
2019-03-20T00:46:13.099Z,0.23
2019-03-20T00:49:29.825Z,4.90
2019-03-20T00:52:37.019Z,1.80
2019-03-20T00:55:53.697Z,0.33
2019-03-20T00:59:00.991Z,1.43
2019-03-20T01:02:08.460Z,0.20
2019-03-20T01:05:15.201Z,0.60
2019-03-20T01:08:22.601Z,1.80
2019-03-20T01:11:39.328Z,0.10
2019-03-20T01:14:46.632Z,1.27
2019-03-20T01:18:03.249Z,0.67
2019-03-20T01:21:09.891Z,1.07
2019-03-20T01:24:17.224Z,0.00
2019-03-20T01:27:24.803Z,0.27
2019-03-20T01:30:36.497Z,1.53
2019-03-20T01:33:43.657Z,0.30
2019-03-20T01:36:51.183Z,0.10
2019-03-20T01:39:58.432Z,0.57
2019-03-20T01:43:06.103Z,0.17
2019-03-20T01:46:22.455Z,2.47
2019-03-20T01:49:29.579Z,0.10
2019-03-20T01:52:36.820Z,0.93
2019-03-20T01:55:44.021Z,3.73
2019-03-20T01:58:51.817Z,0.17
2019-03-20T02:01:59.049Z,0.00
2019-03-20T02:05:06.485Z,0.20
2019-03-20T02:08:13.618Z,0.10
2019-03-20T02:11:20.955Z,1.50
2019-03-20T02:14:28.093Z,0.30
2019-03-20T02:17:35.395Z,0.83
2019-03-20T02:20:42.627Z,0.10
2019-03-20T02:23:49.870Z,4.17
2019-03-20T02:26:57.574Z,3.77
2019-03-20T02:30:05.636Z,0.57
2019-03-20T02:33:12.774Z,0.10
2019-03-20T02:36:20.286Z,0.30
2019-03-20T02:39:26.434Z,0.60
2019-03-20T02:42:33.673Z,0.30
2019-03-20T02:45:40.864Z,0.20
2019-03-20T02:48:48.000Z,0.10
2019-03-20T02:51:55.314Z,0.20
2019-03-20T02:55:02.456Z,0.50
2019-03-20T02:58:09.658Z,0.33
2019-03-20T03:01:16.986Z,0.47
2019-03-20T03:04:34.045Z,0.10
2019-03-20T03:07:41.332Z,0.30
2019-03-20T03:10:48.566Z,3.17
2019-03-20T03:14:05.371Z,3.20
2019-03-20T03:17:22.096Z,0.43
2019-03-20T03:20:29.331Z,1.60
2019-03-20T03:23:36.459Z,0.10
2019-03-20T03:26:43.862Z,0.10
2019-03-20T03:30:00.659Z,0.20
2019-03-20T03:33:17.363Z,4.83
2019-03-20T03:36:24.462Z,0.77
2019-03-20T03:39:31.710Z,0.77
2019-03-20T03:42:39.234Z,3.13
2019-03-20T03:45:55.693Z,0.53
2019-03-20T03:49:01.805Z,0.70
2019-03-20T03:52:18.343Z,0.60
2019-03-20T03:55:34.910Z,9.53
2019-03-20T03:58:42.126Z,0.87
2019-03-20T04:01:49.257Z,0.43
2019-03-20T04:04:56.399Z,3.50
2019-03-20T04:08:03.600Z,0.30
2019-03-20T04:11:10.849Z,0.30
2019-03-20T04:14:18.154Z,4.97
2019-03-20T04:17:26.967Z,1.20
2019-03-20T04:20:34.071Z,0.37
2019-03-20T04:23:41.591Z,2.10
2019-03-20T04:26:58.106Z,0.67
2019-03-20T04:30:14.884Z,0.73
2019-03-20T04:33:22.037Z,0.93
2019-03-20T04:36:27.638Z,0.80
2019-03-20T04:39:34.780Z,2.83
2019-03-20T04:42:42.005Z,0.93
2019-03-20T04:45:49.134Z,2.00
2019-03-20T04:48:56.370Z,2.53
2019-03-20T04:52:03.632Z,1.37
2019-03-20T04:55:11.214Z,0.57
2019-03-20T04:58:27.592Z,2.90
2019-03-20T05:01:34.834Z,1.83
2019-03-20T05:04:42.067Z,3.87
2019-03-20T05:07:58.766Z,2.77
2019-03-20T05:11:05.977Z,4.70
2019-03-20T05:14:13.229Z,3.67
2019-03-20T05:17:20.431Z,2.60
2019-03-20T05:20:27.564Z,3.73
2019-03-20T05:23:34.877Z,8.13
2019-03-20T05:26:51.551Z,2.27
2019-03-20T05:29:58.671Z,1.50
2019-03-20T05:33:05.915Z,3.23
2019-03-20T05:36:13.083Z,6.77
2019-03-20T05:39:20.215Z,2.37
2019-03-20T05:42:27.466Z,2.00
2019-03-20T05:45:34.603Z,2.33
2019-03-20T05:48:41.943Z,7.27
2019-03-20T05:51:49.080Z,8.87
2019-03-20T05:54:56.324Z,9.20
2019-03-20T05:58:03.461Z,12.60
2019-03-20T06:01:10.700Z,3.73
2019-03-20T06:04:17.906Z,3.13
2019-03-20T06:07:25.047Z,4.10
2019-03-20T06:10:32.179Z,2.80
2019-03-20T06:13:39.327Z,7.93
2019-03-20T06:16:46.471Z,5.33
2019-03-20T06:19:53.639Z,2.27
2019-03-20T06:23:00.772Z,3.47
2019-03-20T06:26:07.998Z,6.23
2019-03-20T06:29:15.248Z,6.07
2019-03-20T06:32:22.487Z,10.43
2019-03-20T06:35:29.733Z,5.60
2019-03-20T06:38:36.994Z,8.83
2019-03-20T06:41:44.195Z,2.77
2019-03-20T06:44:51.500Z,2.53
2019-03-20T06:47:58.807Z,7.03
2019-03-20T06:51:06.019Z,4.93
2019-03-20T06:54:13.161Z,7.73
2019-03-20T06:57:20.463Z,4.57
2019-03-20T07:00:50.670Z,7.67
2019-03-20T07:04:29.924Z,4.80
2019-03-20T07:07:44.076Z,6.03
2019-03-20T07:11:06.356Z,8.13
2019-03-20T07:14:13.001Z,10.23
2019-03-20T07:17:20.250Z,9.27
2019-03-20T07:20:27.400Z,12.77
2019-03-20T07:23:34.643Z,5.97
2019-03-20T07:26:41.883Z,7.87
2019-03-20T07:29:47.511Z,5.17
2019-03-20T07:33:04.372Z,5.87
2019-03-20T07:36:11.785Z,9.97
2019-03-20T07:39:28.358Z,10.07
2019-03-20T07:42:35.563Z,7.43
2019-03-20T07:45:42.775Z,8.17
2019-03-20T07:48:49.937Z,10.53
2019-03-20T07:51:57.472Z,10.03
2019-03-20T07:55:13.934Z,12.77
2019-03-20T07:58:21.144Z,11.87
2019-03-20T08:01:37.837Z,8.70
2019-03-20T08:04:44.981Z,8.93
2019-03-20T08:07:52.115Z,13.30
2019-03-20T08:10:59.431Z,9.33
2019-03-20T08:14:06.730Z,14.03
2019-03-20T08:17:13.880Z,9.13
2019-03-20T08:20:21.261Z,11.80
2019-03-20T08:23:37.838Z,10.20
2019-03-20T08:26:45.077Z,9.13
2019-03-20T08:29:52.211Z,11.10
2019-03-20T08:32:59.465Z,10.93
2019-03-20T08:36:06.864Z,11.90
2019-03-20T08:39:23.393Z,9.57
2019-03-20T08:42:30.611Z,15.47
2019-03-20T08:45:37.935Z,11.37
2019-03-20T08:48:54.652Z,6.93
2019-03-20T08:52:11.365Z,8.40
2019-03-20T08:55:18.705Z,9.23
2019-03-20T08:58:35.401Z,9.43
2019-03-20T09:01:42.537Z,7.97
2019-03-20T09:04:49.779Z,11.10
2019-03-20T09:07:56.921Z,8.53
2019-03-20T09:11:04.156Z,11.83
2019-03-20T09:14:11.381Z,9.47
2019-03-20T09:17:18.607Z,8.50
2019-03-20T09:20:25.839Z,10.37
2019-03-20T09:23:32.974Z,8.50
2019-03-20T09:26:40.212Z,9.20
2019-03-20T09:29:47.340Z,9.43
2019-03-20T09:32:55.044Z,8.93
2019-03-20T09:36:02.345Z,7.57
2019-03-20T09:39:09.683Z,8.83
2019-03-20T09:42:16.840Z,11.70
2019-03-20T09:45:24.227Z,9.03
2019-03-20T09:48:31.454Z,8.10
2019-03-20T09:51:38.662Z,7.20
2019-03-20T09:54:45.902Z,13.97
2019-03-20T09:57:53.127Z,11.33
2019-03-20T10:01:00.289Z,10.17
2019-03-20T10:04:07.433Z,8.30
2019-03-20T10:07:14.699Z,10.27
2019-03-20T10:10:22.446Z,9.33
2019-03-20T10:13:29.672Z,9.37
2019-03-20T10:16:36.807Z,8.53
2019-03-20T10:19:44.212Z,10.13
2019-03-20T10:23:01.102Z,8.53
2019-03-20T10:26:08.353Z,10.00
2019-03-20T10:29:15.475Z,7.83
2019-03-20T10:32:22.622Z,11.70
2019-03-20T10:35:29.879Z,8.13
2019-03-20T10:38:37.159Z,8.53
2019-03-20T10:41:44.342Z,10.20
2019-03-20T10:44:51.591Z,7.80
2019-03-20T10:47:58.716Z,8.80
2019-03-20T10:51:06.050Z,10.00
2019-03-20T10:54:22.710Z,12.77
2019-03-20T10:57:29.960Z,9.03
2019-03-20T11:00:37.219Z,9.43
2019-03-20T11:03:54.172Z,16.13
2019-03-20T11:07:10.766Z,18.00
2019-03-20T11:10:19.347Z,8.97
2019-03-20T11:13:26.661Z,9.10
2019-03-20T11:16:33.797Z,12.90
2019-03-20T11:19:40.935Z,8.00
2019-03-20T11:22:48.460Z,9.63
2019-03-20T11:26:05.165Z,9.90
2019-03-20T11:29:12.269Z,12.37
2019-03-20T11:32:19.403Z,8.90
2019-03-20T11:35:26.714Z,13.73
2019-03-20T11:38:33.998Z,14.90
2019-03-20T11:41:41.175Z,13.67
2019-03-20T11:44:57.842Z,12.27
2019-03-20T11:48:05.357Z,12.23
2019-03-20T11:51:21.821Z,17.17
2019-03-20T11:54:29.060Z,11.83
2019-03-20T11:57:36.224Z,10.27
2019-03-20T12:00:43.463Z,11.97
2019-03-20T12:03:50.668Z,11.03
2019-03-20T12:06:57.918Z,11.03
2019-03-20T12:10:06.179Z,10.43
2019-03-20T12:13:13.375Z,13.63
2019-03-20T12:16:20.661Z,14.43
2019-03-20T12:19:27.893Z,13.23
2019-03-20T12:22:35.155Z,11.10
2019-03-20T12:25:42.421Z,13.37
2019-03-20T12:28:49.572Z,16.07
2019-03-20T12:31:56.710Z,10.27
2019-03-20T12:35:04.324Z,12.20
2019-03-20T12:38:21.004Z,15.83
2019-03-20T12:41:28.246Z,14.57
2019-03-20T12:44:35.457Z,12.33
2019-03-20T12:47:42.675Z,13.07
2019-03-20T12:50:59.386Z,11.93
2019-03-20T12:54:06.703Z,15.10
2019-03-20T12:57:23.366Z,21.23
2019-03-20T13:00:30.583Z,12.80
2019-03-20T13:03:37.885Z,13.63
2019-03-20T13:06:54.602Z,10.90
2019-03-20T13:10:13.322Z,15.07
2019-03-20T13:13:29.690Z,13.60
2019-03-20T13:16:36.825Z,14.37
2019-03-20T13:19:44.088Z,12.93
2019-03-20T13:22:54.493Z,20.07
2019-03-20T13:26:01.604Z,18.13
2019-03-20T13:29:08.938Z,16.97
2019-03-20T13:32:16.160Z,18.30
2019-03-20T13:35:32.868Z,15.63
2019-03-20T13:38:40.011Z,15.37
2019-03-20T13:41:47.216Z,17.50
2019-03-20T13:44:54.354Z,11.10
2019-03-20T13:48:01.498Z,19.03
2019-03-20T13:51:08.641Z,12.00
2019-03-20T13:54:15.881Z,12.27
2019-03-20T13:57:23.126Z,19.10
2019-03-20T14:00:30.445Z,10.60
2019-03-20T14:03:37.658Z,14.27
2019-03-20T14:06:44.904Z,16.57
2019-03-20T14:09:51.008Z,12.10
2019-03-20T14:13:07.335Z,14.53
2019-03-20T14:16:24.092Z,10.47
2019-03-20T14:19:31.317Z,18.03
2019-03-20T14:22:38.496Z,13.80
2019-03-20T14:25:55.225Z,19.23
2019-03-20T14:29:02.452Z,11.83
2019-03-20T14:32:19.188Z,19.97
2019-03-20T14:35:35.983Z,21.43
2019-03-20T14:38:43.331Z,18.77
2019-03-20T14:42:00.015Z,15.33
2019-03-20T14:45:09.275Z,14.80
2019-03-20T14:48:25.614Z,18.83
2019-03-20T14:51:42.325Z,17.57
2019-03-20T14:54:49.580Z,15.17
2019-03-20T14:57:56.790Z,15.80
2019-03-20T15:01:13.753Z,21.50
2019-03-20T15:04:20.408Z,23.10
2019-03-20T15:07:27.669Z,18.67
2019-03-20T15:10:34.819Z,13.57
2019-03-20T15:13:41.976Z,14.70
2019-03-20T15:16:49.309Z,16.27
2019-03-20T15:19:56.457Z,17.57
2019-03-20T15:23:03.997Z,18.73
2019-03-20T15:26:11.152Z,20.30
2019-03-20T15:29:27.884Z,13.40
2019-03-20T15:32:35.043Z,14.17
2019-03-20T15:35:51.952Z,16.43
2019-03-20T15:39:08.834Z,20.33
2019-03-20T15:42:25.539Z,20.57
2019-03-20T15:45:32.765Z,18.57
2019-03-20T15:48:39.944Z,16.97
2019-03-20T15:51:56.626Z,21.60
2019-03-20T15:55:04.244Z,16.17
2019-03-20T15:58:20.694Z,16.93
2019-03-20T16:01:37.533Z,19.93
2019-03-20T16:04:44.898Z,20.83
2019-03-20T16:08:01.356Z,20.77
2019-03-20T16:11:08.578Z,13.20
2019-03-20T16:14:15.724Z,14.80
2019-03-20T16:17:32.579Z,15.17
2019-03-20T16:20:39.874Z,14.10
2019-03-20T16:23:56.590Z,24.50
2019-03-20T16:27:03.929Z,15.73
2019-03-20T16:30:21.625Z,15.23
2019-03-20T16:33:28.784Z,17.07
2019-03-20T16:36:36.109Z,14.73
2019-03-20T16:39:43.364Z,15.00
2019-03-20T16:42:50.784Z,16.50
2019-03-20T16:45:57.964Z,14.00
2019-03-20T16:49:05.340Z,11.90
2019-03-20T16:52:12.494Z,14.33
2019-03-20T16:55:19.709Z,14.90
2019-03-20T16:58:36.583Z,20.17
2019-03-20T17:01:53.297Z,16.60
2019-03-20T17:05:00.658Z,13.07
2019-03-20T17:08:17.280Z,17.07
2019-03-20T17:11:34.497Z,25.67
2019-03-20T17:14:42.865Z,19.73
2019-03-20T17:17:50.355Z,13.53
2019-03-20T17:21:07.065Z,18.97
2019-03-20T17:24:14.226Z,17.97
2019-03-20T17:27:21.549Z,21.10
2019-03-20T17:30:38.475Z,23.00
2019-03-20T17:33:55.032Z,21.37
2019-03-20T17:37:12.283Z,15.03
2019-03-20T17:40:29.079Z,24.27
2019-03-20T17:43:45.785Z,26.30
2019-03-20T17:46:52.922Z,27.03
2019-03-20T17:50:00.325Z,20.00
2019-03-20T17:53:16.999Z,19.70
2019-03-20T17:56:24.190Z,17.10
2019-03-20T17:59:31.306Z,20.77
2019-03-20T18:02:38.497Z,27.03
2019-03-20T18:05:45.822Z,21.50
2019-03-20T18:09:02.566Z,21.90
2019-03-20T18:12:19.347Z,22.70
2019-03-20T18:15:26.630Z,24.17
2019-03-20T18:18:34.198Z,20.93
2019-03-20T18:21:50.552Z,23.37
2019-03-20T18:24:57.825Z,21.13
2019-03-20T18:28:14.638Z,20.10
2019-03-20T18:31:31.571Z,19.57
2019-03-20T18:34:48.211Z,20.80
2019-03-20T18:38:05.619Z,26.93
2019-03-20T18:41:13.041Z,20.83
2019-03-20T18:44:20.193Z,18.23
2019-03-20T18:47:27.791Z,25.57
2019-03-20T18:50:34.969Z,18.37
2019-03-20T18:53:42.119Z,15.47
2019-03-20T18:56:49.345Z,17.50
2019-03-20T18:59:56.570Z,22.27
2019-03-20T19:03:04.605Z,22.93
2019-03-20T19:06:15.461Z,19.20
2019-03-20T19:09:22.774Z,22.70
2019-03-20T19:12:29.945Z,21.37
2019-03-20T19:15:37.150Z,26.37
2019-03-20T19:18:54.375Z,21.90
2019-03-20T19:22:01.597Z,18.77
2019-03-20T19:25:09.960Z,31.60
2019-03-20T19:28:17.019Z,18.77
2019-03-20T19:31:24.224Z,16.90
2019-03-20T19:34:31.505Z,18.70
2019-03-20T19:37:38.782Z,20.97
2019-03-20T19:40:45.511Z,16.43
2019-03-20T19:43:53.186Z,20.77
2019-03-20T19:47:00.452Z,17.17
2019-03-20T19:50:09.873Z,21.47
2019-03-20T19:53:26.436Z,18.87
2019-03-20T19:56:33.595Z,20.60
2019-03-20T19:59:40.851Z,16.87
2019-03-20T20:02:57.946Z,23.13
2019-03-20T20:06:05.375Z,19.67
2019-03-20T20:09:12.583Z,21.87
2019-03-20T20:12:30.642Z,23.47
2019-03-20T20:15:29.198Z,19.53
2019-03-20T20:18:36.478Z,24.07
2019-03-20T20:21:43.717Z,24.50
2019-03-20T20:24:50.978Z,17.17
2019-03-20T20:27:58.548Z,16.70
2019-03-20T20:31:15.186Z,18.23
2019-03-20T20:34:22.395Z,14.57
2019-03-20T20:37:39.500Z,18.60
2019-03-20T20:40:55.888Z,17.77
2019-03-20T20:44:03.107Z,19.43
2019-03-20T20:47:10.354Z,15.43
2019-03-20T20:50:17.454Z,19.50
2019-03-20T20:53:24.662Z,18.53
2019-03-20T20:56:41.467Z,18.30
2019-03-20T20:59:48.719Z,20.70
2019-03-20T21:02:55.934Z,19.73
2019-03-20T21:06:03.449Z,16.00
2019-03-20T21:09:19.911Z,20.27
2019-03-20T21:12:36.703Z,21.53
2019-03-20T21:15:57.276Z,19.23
2019-03-20T21:19:35.767Z,16.90
2019-03-20T21:23:26.326Z,15.03
2019-03-20T21:26:35.413Z,25.43
2019-03-20T21:30:06.758Z,25.17
2019-03-20T21:33:36.826Z,22.93
2019-03-20T21:37:20.809Z,19.43
2019-03-20T21:40:28.782Z,22.33
2019-03-20T21:43:56.305Z,22.87
2019-03-20T21:47:39.283Z,17.80
2019-03-20T21:51:16.032Z,28.77
2019-03-20T21:55:04.237Z,31.17
2019-03-20T21:58:19.973Z,23.67
2019-03-20T22:02:23.597Z,24.70
2019-03-20T22:06:13.763Z,24.87
2019-03-20T22:09:56.387Z,18.30
2019-03-20T22:13:39.930Z,17.87
2019-03-20T22:17:20.443Z,22.90
2019-03-20T22:20:55.588Z,29.87
2019-03-20T22:24:52.336Z,21.70
2019-03-20T22:28:52.184Z,20.03
2019-03-20T22:32:50.867Z,18.93
2019-03-20T22:36:02.914Z,18.47
2019-03-20T22:40:06.929Z,22.73
2019-03-20T22:43:30.417Z,21.37
2019-03-20T22:47:29.309Z,18.13
2019-03-20T22:50:43.493Z,22.87
2019-03-20T22:54:50.991Z,27.37
2019-03-20T22:58:30.829Z,23.47
2019-03-20T23:01:59.673Z,21.10
2019-03-20T23:05:08.775Z,23.90
2019-03-20T23:08:25.908Z,16.73
2019-03-20T23:11:33.659Z,24.33
2019-03-20T23:14:41.433Z,23.93
2019-03-20T23:17:49.164Z,20.73
2019-03-20T23:20:57.025Z,17.97
2019-03-20T23:24:04.849Z,17.60
2019-03-20T23:27:29.973Z,21.00
2019-03-20T23:30:37.678Z,20.47
2019-03-20T23:33:45.377Z,23.90
2019-03-20T23:37:02.625Z,27.03
2019-03-20T23:40:19.452Z,21.20
2019-03-20T23:43:27.609Z,25.47
2019-03-20T23:46:35.709Z,15.30
2019-03-20T23:49:43.414Z,19.30
2019-03-20T23:52:51.060Z,19.17
2019-03-20T23:56:08.296Z,22.67
2019-03-20T23:59:16.260Z,20.87
